sensor_id;sensor_type;location;lat;lon;timestamp;P1;durP1;ratioP1;P2;durP2;ratioP2
71969;SDS011;59838;52.152;5.436;2024-02-15T00:02:26;8.52;;;3.25;;
71969;SDS011;59838;52.152;5.436;2024-02-15T00:04:52;7.25;;;2.95;;
71969;SDS011;59838;52.152;5.436;2024-02-15T00:07:19;15.50;;;3.40;;
71969;SDS011;59838;52.152;5.436;2024-02-15T00:09:48;8.80;;;3.80;;
71969;SDS011;59838;52.152;5.436;2024-02-15T00:12:15;6.30;;;3.40;;
71969;SDS011;59838;52.152;5.436;2024-02-15T00:14:42;9.60;;;3.42;;
71969;SDS011;59838;52.152;5.436;2024-02-15T00:17:09;13.60;;;3.85;;
71969;SDS011;59838;52.152;5.436;2024-02-15T00:19:35;8.38;;;3.17;;
71969;SDS011;59838;52.152;5.436;2024-02-15T00:22:02;9.60;;;3.88;;
71969;SDS011;59838;52.152;5.436;2024-02-15T00:24:28;5.75;;;3.25;;
71969;SDS011;59838;52.152;5.436;2024-02-15T00:26:57;8.02;;;3.00;;
71969;SDS011;59838;52.152;5.436;2024-02-15T00:29:24;7.05;;;3.90;;
71969;SDS011;59838;52.152;5.436;2024-02-15T00:31:52;11.15;;;3.63;;
71969;SDS011;59838;52.152;5.436;2024-02-15T00:34:19;9.70;;;3.67;;
71969;SDS011;59838;52.152;5.436;2024-02-15T00:36:46;8.50;;;4.07;;
71969;SDS011;59838;52.152;5.436;2024-02-15T00:39:12;10.23;;;3.75;;
71969;SDS011;59838;52.152;5.436;2024-02-15T00:41:40;7.07;;;3.65;;
71969;SDS011;59838;52.152;5.436;2024-02-15T00:44:08;10.02;;;4.38;;
71969;SDS011;59838;52.152;5.436;2024-02-15T00:46:36;11.23;;;4.30;;
71969;SDS011;59838;52.152;5.436;2024-02-15T00:49:04;6.72;;;3.40;;
71969;SDS011;59838;52.152;5.436;2024-02-15T00:51:34;12.50;;;3.85;;
71969;SDS011;59838;52.152;5.436;2024-02-15T00:54:02;12.98;;;3.70;;
71969;SDS011;59838;52.152;5.436;2024-02-15T00:56:29;7.28;;;3.70;;
71969;SDS011;59838;52.152;5.436;2024-02-15T00:58:58;8.95;;;3.15;;
71969;SDS011;59838;52.152;5.436;2024-02-15T01:01:27;11.47;;;3.37;;
71969;SDS011;59838;52.152;5.436;2024-02-15T01:03:53;6.95;;;3.50;;
71969;SDS011;59838;52.152;5.436;2024-02-15T01:06:19;6.20;;;3.72;;
71969;SDS011;59838;52.152;5.436;2024-02-15T01:08:46;9.63;;;3.22;;
71969;SDS011;59838;52.152;5.436;2024-02-15T01:11:13;10.75;;;3.10;;
71969;SDS011;59838;52.152;5.436;2024-02-15T01:13:39;5.53;;;3.25;;
71969;SDS011;59838;52.152;5.436;2024-02-15T01:16:07;8.40;;;3.33;;
71969;SDS011;59838;52.152;5.436;2024-02-15T01:18:34;9.02;;;3.88;;
71969;SDS011;59838;52.152;5.436;2024-02-15T01:21:01;8.73;;;3.90;;
71969;SDS011;59838;52.152;5.436;2024-02-15T01:23:28;8.30;;;4.07;;
71969;SDS011;59838;52.152;5.436;2024-02-15T01:25:55;7.43;;;3.72;;
71969;SDS011;59838;52.152;5.436;2024-02-15T01:28:21;6.93;;;3.03;;
71969;SDS011;59838;52.152;5.436;2024-02-15T01:30:48;9.77;;;3.97;;
71969;SDS011;59838;52.152;5.436;2024-02-15T01:33:15;10.77;;;3.83;;
71969;SDS011;59838;52.152;5.436;2024-02-15T01:35:42;11.30;;;4.90;;
71969;SDS011;59838;52.152;5.436;2024-02-15T01:38:09;8.57;;;4.65;;
71969;SDS011;59838;52.152;5.436;2024-02-15T01:40:36;11.18;;;4.68;;
71969;SDS011;59838;52.152;5.436;2024-02-15T01:43:03;9.18;;;5.32;;
71969;SDS011;59838;52.152;5.436;2024-02-15T01:45:30;13.40;;;5.70;;
71969;SDS011;59838;52.152;5.436;2024-02-15T01:47:57;8.60;;;6.28;;
71969;SDS011;59838;52.152;5.436;2024-02-15T01:50:24;11.18;;;5.68;;
71969;SDS011;59838;52.152;5.436;2024-02-15T01:52:53;10.88;;;7.07;;
71969;SDS011;59838;52.152;5.436;2024-02-15T01:55:23;12.20;;;7.13;;
71969;SDS011;59838;52.152;5.436;2024-02-15T01:57:49;12.68;;;6.75;;
71969;SDS011;59838;52.152;5.436;2024-02-15T02:00:17;10.90;;;6.88;;
71969;SDS011;59838;52.152;5.436;2024-02-15T02:02:45;18.20;;;7.90;;
71969;SDS011;59838;52.152;5.436;2024-02-15T02:05:12;15.50;;;6.85;;
71969;SDS011;59838;52.152;5.436;2024-02-15T02:07:38;13.85;;;8.32;;
71969;SDS011;59838;52.152;5.436;2024-02-15T02:10:06;14.10;;;7.63;;
71969;SDS011;59838;52.152;5.436;2024-02-15T02:12:33;18.40;;;8.55;;
71969;SDS011;59838;52.152;5.436;2024-02-15T02:15:00;16.50;;;7.00;;
71969;SDS011;59838;52.152;5.436;2024-02-15T02:17:27;11.10;;;7.50;;
71969;SDS011;59838;52.152;5.436;2024-02-15T02:19:53;12.95;;;7.07;;
71969;SDS011;59838;52.152;5.436;2024-02-15T02:22:21;16.02;;;7.70;;
71969;SDS011;59838;52.152;5.436;2024-02-15T02:25:06;11.35;;;6.47;;
71969;SDS011;59838;52.152;5.436;2024-02-15T02:27:35;13.25;;;7.18;;
71969;SDS011;59838;52.152;5.436;2024-02-15T02:30:11;13.95;;;6.35;;
71969;SDS011;59838;52.152;5.436;2024-02-15T02:32:41;14.90;;;6.88;;
71969;SDS011;59838;52.152;5.436;2024-02-15T02:35:08;16.45;;;7.43;;
71969;SDS011;59838;52.152;5.436;2024-02-15T02:37:38;12.45;;;6.68;;
71969;SDS011;59838;52.152;5.436;2024-02-15T02:40:05;11.83;;;6.40;;
71969;SDS011;59838;52.152;5.436;2024-02-15T02:42:56;25.08;;;7.00;;
71969;SDS011;59838;52.152;5.436;2024-02-15T02:45:22;10.30;;;6.60;;
71969;SDS011;59838;52.152;5.436;2024-02-15T02:47:49;18.35;;;7.55;;
71969;SDS011;59838;52.152;5.436;2024-02-15T02:50:22;12.38;;;6.47;;
71969;SDS011;59838;52.152;5.436;2024-02-15T02:52:50;9.70;;;5.93;;
71969;SDS011;59838;52.152;5.436;2024-02-15T02:55:18;16.92;;;6.38;;
71969;SDS011;59838;52.152;5.436;2024-02-15T02:57:44;15.27;;;6.25;;
71969;SDS011;59838;52.152;5.436;2024-02-15T03:00:12;12.25;;;6.10;;
71969;SDS011;59838;52.152;5.436;2024-02-15T03:02:41;13.68;;;6.10;;
71969;SDS011;59838;52.152;5.436;2024-02-15T03:05:09;11.90;;;5.30;;
71969;SDS011;59838;52.152;5.436;2024-02-15T03:07:38;13.18;;;5.57;;
71969;SDS011;59838;52.152;5.436;2024-02-15T03:10:08;9.48;;;6.00;;
71969;SDS011;59838;52.152;5.436;2024-02-15T03:12:41;12.30;;;5.80;;
71969;SDS011;59838;52.152;5.436;2024-02-15T03:15:14;9.40;;;5.10;;
71969;SDS011;59838;52.152;5.436;2024-02-15T03:17:42;10.68;;;5.25;;
71969;SDS011;59838;52.152;5.436;2024-02-15T03:20:13;12.25;;;4.72;;
71969;SDS011;59838;52.152;5.436;2024-02-15T03:22:54;10.75;;;5.15;;
71969;SDS011;59838;52.152;5.436;2024-02-15T03:25:24;13.55;;;5.57;;
71969;SDS011;59838;52.152;5.436;2024-02-15T03:27:52;11.82;;;5.25;;
71969;SDS011;59838;52.152;5.436;2024-02-15T03:30:20;13.70;;;4.87;;
71969;SDS011;59838;52.152;5.436;2024-02-15T03:32:47;11.88;;;4.78;;
71969;SDS011;59838;52.152;5.436;2024-02-15T03:35:15;10.40;;;5.30;;
71969;SDS011;59838;52.152;5.436;2024-02-15T03:37:41;13.40;;;4.88;;
71969;SDS011;59838;52.152;5.436;2024-02-15T03:40:08;11.32;;;5.45;;
71969;SDS011;59838;52.152;5.436;2024-02-15T03:42:35;10.90;;;4.63;;
71969;SDS011;59838;52.152;5.436;2024-02-15T03:45:03;9.18;;;4.25;;
71969;SDS011;59838;52.152;5.436;2024-02-15T03:47:32;14.88;;;4.63;;
71969;SDS011;59838;52.152;5.436;2024-02-15T03:50:05;9.85;;;5.05;;
71969;SDS011;59838;52.152;5.436;2024-02-15T03:52:34;12.77;;;4.50;;
71969;SDS011;59838;52.152;5.436;2024-02-15T03:55:01;12.87;;;4.30;;
71969;SDS011;59838;52.152;5.436;2024-02-15T03:57:28;13.40;;;4.53;;
71969;SDS011;59838;52.152;5.436;2024-02-15T03:59:55;9.85;;;4.68;;
71969;SDS011;59838;52.152;5.436;2024-02-15T04:02:24;11.93;;;4.53;;
71969;SDS011;59838;52.152;5.436;2024-02-15T04:04:56;9.55;;;4.72;;
71969;SDS011;59838;52.152;5.436;2024-02-15T04:07:22;8.30;;;4.20;;
71969;SDS011;59838;52.152;5.436;2024-02-15T04:09:53;11.57;;;4.93;;
71969;SDS011;59838;52.152;5.436;2024-02-15T04:12:20;13.60;;;4.63;;
71969;SDS011;59838;52.152;5.436;2024-02-15T04:14:47;9.65;;;4.55;;
71969;SDS011;59838;52.152;5.436;2024-02-15T04:17:15;8.45;;;4.32;;
71969;SDS011;59838;52.152;5.436;2024-02-15T04:19:48;9.68;;;4.30;;
71969;SDS011;59838;52.152;5.436;2024-02-15T04:22:16;10.23;;;4.03;;
71969;SDS011;59838;52.152;5.436;2024-02-15T04:24:43;9.05;;;4.05;;
71969;SDS011;59838;52.152;5.436;2024-02-15T04:27:12;8.43;;;3.80;;
71969;SDS011;59838;52.152;5.436;2024-02-15T04:29:40;8.88;;;3.63;;
71969;SDS011;59838;52.152;5.436;2024-02-15T04:32:08;8.60;;;3.90;;
71969;SDS011;59838;52.152;5.436;2024-02-15T04:34:38;12.18;;;3.88;;
71969;SDS011;59838;52.152;5.436;2024-02-15T04:37:08;9.65;;;3.80;;
71969;SDS011;59838;52.152;5.436;2024-02-15T04:39:35;6.03;;;2.50;;
71969;SDS011;59838;52.152;5.436;2024-02-15T04:42:02;9.88;;;3.17;;
71969;SDS011;59838;52.152;5.436;2024-02-15T04:44:31;9.60;;;3.30;;
71969;SDS011;59838;52.152;5.436;2024-02-15T04:47:01;6.72;;;3.30;;
71969;SDS011;59838;52.152;5.436;2024-02-15T04:49:31;11.27;;;3.70;;
71969;SDS011;59838;52.152;5.436;2024-02-15T04:51:59;11.88;;;3.60;;
71969;SDS011;59838;52.152;5.436;2024-02-15T04:54:28;9.82;;;3.40;;
71969;SDS011;59838;52.152;5.436;2024-02-15T04:56:55;9.35;;;3.67;;
71969;SDS011;59838;52.152;5.436;2024-02-15T04:59:23;7.43;;;2.72;;
71969;SDS011;59838;52.152;5.436;2024-02-15T05:01:52;8.68;;;2.92;;
71969;SDS011;59838;52.152;5.436;2024-02-15T05:04:20;8.68;;;3.17;;
71969;SDS011;59838;52.152;5.436;2024-02-15T05:06:46;15.00;;;3.40;;
71969;SDS011;59838;52.152;5.436;2024-02-15T05:09:13;9.05;;;3.55;;
71969;SDS011;59838;52.152;5.436;2024-02-15T05:11:40;12.95;;;3.60;;
71969;SDS011;59838;52.152;5.436;2024-02-15T05:14:16;8.48;;;3.13;;
71969;SDS011;59838;52.152;5.436;2024-02-15T05:16:46;9.32;;;3.47;;
71969;SDS011;59838;52.152;5.436;2024-02-15T05:19:14;7.88;;;3.60;;
71969;SDS011;59838;52.152;5.436;2024-02-15T05:21:45;11.93;;;3.30;;
71969;SDS011;59838;52.152;5.436;2024-02-15T05:24:15;12.73;;;3.70;;
71969;SDS011;59838;52.152;5.436;2024-02-15T05:26:43;10.88;;;3.85;;
71969;SDS011;59838;52.152;5.436;2024-02-15T05:29:14;10.13;;;3.90;;
71969;SDS011;59838;52.152;5.436;2024-02-15T05:31:41;10.48;;;3.00;;
71969;SDS011;59838;52.152;5.436;2024-02-15T05:34:09;11.38;;;3.60;;
71969;SDS011;59838;52.152;5.436;2024-02-15T05:36:38;12.02;;;3.72;;
71969;SDS011;59838;52.152;5.436;2024-02-15T05:39:05;11.45;;;3.70;;
71969;SDS011;59838;52.152;5.436;2024-02-15T05:41:32;6.82;;;3.83;;
71969;SDS011;59838;52.152;5.436;2024-02-15T05:43:59;10.40;;;4.18;;
71969;SDS011;59838;52.152;5.436;2024-02-15T05:46:25;6.28;;;3.40;;
71969;SDS011;59838;52.152;5.436;2024-02-15T05:48:54;9.23;;;3.55;;
71969;SDS011;59838;52.152;5.436;2024-02-15T05:51:21;8.02;;;3.90;;
71969;SDS011;59838;52.152;5.436;2024-02-15T05:53:48;7.40;;;4.28;;
71969;SDS011;59838;52.152;5.436;2024-02-15T05:56:16;8.60;;;3.80;;
71969;SDS011;59838;52.152;5.436;2024-02-15T05:58:43;8.07;;;3.47;;
71969;SDS011;59838;52.152;5.436;2024-02-15T06:01:09;8.10;;;4.15;;
71969;SDS011;59838;52.152;5.436;2024-02-15T06:03:39;6.10;;;3.10;;
71969;SDS011;59838;52.152;5.436;2024-02-15T06:06:08;9.93;;;3.15;;
71969;SDS011;59838;52.152;5.436;2024-02-15T06:08:35;7.50;;;3.38;;
71969;SDS011;59838;52.152;5.436;2024-02-15T06:11:03;11.77;;;3.30;;
71969;SDS011;59838;52.152;5.436;2024-02-15T06:13:31;7.30;;;3.33;;
71969;SDS011;59838;52.152;5.436;2024-02-15T06:15:58;8.90;;;3.47;;
71969;SDS011;59838;52.152;5.436;2024-02-15T06:18:25;6.82;;;3.38;;
71969;SDS011;59838;52.152;5.436;2024-02-15T06:20:54;11.70;;;3.30;;
71969;SDS011;59838;52.152;5.436;2024-02-15T06:23:26;8.18;;;3.20;;
71969;SDS011;59838;52.152;5.436;2024-02-15T06:25:56;7.25;;;3.05;;
71969;SDS011;59838;52.152;5.436;2024-02-15T06:28:24;8.52;;;3.75;;
71969;SDS011;59838;52.152;5.436;2024-02-15T06:31:09;11.80;;;3.88;;
71969;SDS011;59838;52.152;5.436;2024-02-15T06:33:56;7.30;;;3.83;;
71969;SDS011;59838;52.152;5.436;2024-02-15T06:39:34;5.40;;;3.67;;
71969;SDS011;59838;52.152;5.436;2024-02-15T06:42:04;8.40;;;3.47;;
71969;SDS011;59838;52.152;5.436;2024-02-15T06:44:33;5.55;;;3.70;;
71969;SDS011;59838;52.152;5.436;2024-02-15T06:47:00;16.30;;;4.47;;
71969;SDS011;59838;52.152;5.436;2024-02-15T06:49:26;7.93;;;4.00;;
71969;SDS011;59838;52.152;5.436;2024-02-15T06:51:53;7.45;;;4.38;;
71969;SDS011;59838;52.152;5.436;2024-02-15T06:54:20;6.18;;;3.70;;
71969;SDS011;59838;52.152;5.436;2024-02-15T06:56:47;9.75;;;4.95;;
71969;SDS011;59838;52.152;5.436;2024-02-15T06:59:14;6.22;;;4.45;;
71969;SDS011;59838;52.152;5.436;2024-02-15T07:01:41;7.00;;;4.57;;
71969;SDS011;59838;52.152;5.436;2024-02-15T07:04:08;5.72;;;4.25;;
71969;SDS011;59838;52.152;5.436;2024-02-15T07:06:38;8.43;;;4.40;;
71969;SDS011;59838;52.152;5.436;2024-02-15T07:09:05;8.75;;;4.90;;
71969;SDS011;59838;52.152;5.436;2024-02-15T07:11:33;5.22;;;4.57;;
71969;SDS011;59838;52.152;5.436;2024-02-15T07:14:02;8.55;;;4.57;;
71969;SDS011;59838;52.152;5.436;2024-02-15T07:16:33;8.00;;;5.07;;
71969;SDS011;59838;52.152;5.436;2024-02-15T07:19:00;7.07;;;3.85;;
71969;SDS011;59838;52.152;5.436;2024-02-15T07:21:28;7.95;;;4.55;;
71969;SDS011;59838;52.152;5.436;2024-02-15T07:23:55;7.82;;;4.40;;
71969;SDS011;59838;52.152;5.436;2024-02-15T07:26:23;7.18;;;3.72;;
71969;SDS011;59838;52.152;5.436;2024-02-15T07:28:54;6.93;;;4.60;;
71969;SDS011;59838;52.152;5.436;2024-02-15T07:31:21;5.55;;;3.83;;
71969;SDS011;59838;52.152;5.436;2024-02-15T07:33:48;9.52;;;4.07;;
71969;SDS011;59838;52.152;5.436;2024-02-15T07:36:21;5.72;;;3.90;;
71969;SDS011;59838;52.152;5.436;2024-02-15T07:38:49;6.50;;;3.90;;
71969;SDS011;59838;52.152;5.436;2024-02-15T07:41:17;9.23;;;4.40;;
71969;SDS011;59838;52.152;5.436;2024-02-15T07:43:48;9.18;;;3.97;;
71969;SDS011;59838;52.152;5.436;2024-02-15T07:46:16;9.68;;;3.63;;
71969;SDS011;59838;52.152;5.436;2024-02-15T07:48:43;9.30;;;3.83;;
71969;SDS011;59838;52.152;5.436;2024-02-15T07:51:14;5.25;;;2.95;;
71969;SDS011;59838;52.152;5.436;2024-02-15T07:53:42;4.45;;;3.10;;
71969;SDS011;59838;52.152;5.436;2024-02-15T07:56:09;3.78;;;2.53;;
71969;SDS011;59838;52.152;5.436;2024-02-15T07:58:39;2.72;;;2.08;;
71969;SDS011;59838;52.152;5.436;2024-02-15T08:01:18;4.20;;;2.63;;
71969;SDS011;59838;52.152;5.436;2024-02-15T08:03:51;8.18;;;2.45;;
71969;SDS011;59838;52.152;5.436;2024-02-15T08:06:20;3.63;;;1.98;;
71969;SDS011;59838;52.152;5.436;2024-02-15T08:08:50;3.35;;;2.13;;
71969;SDS011;59838;52.152;5.436;2024-02-15T08:11:18;2.55;;;1.60;;
71969;SDS011;59838;52.152;5.436;2024-02-15T08:13:45;3.28;;;2.17;;
71969;SDS011;59838;52.152;5.436;2024-02-15T08:16:16;3.08;;;2.00;;
71969;SDS011;59838;52.152;5.436;2024-02-15T08:18:43;2.60;;;1.85;;
71969;SDS011;59838;52.152;5.436;2024-02-15T08:21:13;3.03;;;1.90;;
71969;SDS011;59838;52.152;5.436;2024-02-15T08:23:41;3.95;;;1.95;;
71969;SDS011;59838;52.152;5.436;2024-02-15T08:26:08;3.65;;;1.60;;
71969;SDS011;59838;52.152;5.436;2024-02-15T08:28:37;2.03;;;1.38;;
71969;SDS011;59838;52.152;5.436;2024-02-15T08:31:03;2.00;;;1.30;;
71969;SDS011;59838;52.152;5.436;2024-02-15T08:33:30;1.67;;;1.27;;
71969;SDS011;59838;52.152;5.436;2024-02-15T08:35:57;2.65;;;1.55;;
71969;SDS011;59838;52.152;5.436;2024-02-15T08:38:24;2.00;;;1.42;;
71969;SDS011;59838;52.152;5.436;2024-02-15T08:40:51;2.25;;;1.80;;
71969;SDS011;59838;52.152;5.436;2024-02-15T08:43:17;2.92;;;0.93;;
71969;SDS011;59838;52.152;5.436;2024-02-15T08:45:44;1.88;;;0.75;;
71969;SDS011;59838;52.152;5.436;2024-02-15T08:48:11;2.78;;;0.88;;
71969;SDS011;59838;52.152;5.436;2024-02-15T08:50:38;1.92;;;0.80;;
71969;SDS011;59838;52.152;5.436;2024-02-15T08:53:05;3.05;;;0.80;;
71969;SDS011;59838;52.152;5.436;2024-02-15T08:55:35;3.08;;;1.10;;
71969;SDS011;59838;52.152;5.436;2024-02-15T08:58:02;1.48;;;0.68;;
71969;SDS011;59838;52.152;5.436;2024-02-15T09:00:30;1.10;;;0.50;;
71969;SDS011;59838;52.152;5.436;2024-02-15T09:02:58;2.67;;;0.60;;
71969;SDS011;59838;52.152;5.436;2024-02-15T09:05:25;3.53;;;0.98;;
71969;SDS011;59838;52.152;5.436;2024-02-15T09:07:52;1.88;;;0.50;;
71969;SDS011;59838;52.152;5.436;2024-02-15T09:10:20;1.63;;;0.50;;
71969;SDS011;59838;52.152;5.436;2024-02-15T09:12:48;2.17;;;0.95;;
71969;SDS011;59838;52.152;5.436;2024-02-15T09:15:16;1.02;;;0.60;;
71969;SDS011;59838;52.152;5.436;2024-02-15T09:17:44;2.15;;;0.68;;
71969;SDS011;59838;52.152;5.436;2024-02-15T09:20:13;2.83;;;0.93;;
71969;SDS011;59838;52.152;5.436;2024-02-15T09:22:52;2.08;;;0.68;;
71969;SDS011;59838;52.152;5.436;2024-02-15T09:25:21;2.45;;;0.60;;
71969;SDS011;59838;52.152;5.436;2024-02-15T09:27:51;5.05;;;0.75;;
71969;SDS011;59838;52.152;5.436;2024-02-15T09:30:20;3.17;;;0.70;;
71969;SDS011;59838;52.152;5.436;2024-02-15T09:32:46;2.45;;;0.80;;
71969;SDS011;59838;52.152;5.436;2024-02-15T09:35:13;1.80;;;0.60;;
71969;SDS011;59838;52.152;5.436;2024-02-15T09:37:47;1.90;;;0.80;;
71969;SDS011;59838;52.152;5.436;2024-02-15T09:40:18;1.52;;;0.80;;
71969;SDS011;59838;52.152;5.436;2024-02-15T09:42:46;2.95;;;1.30;;
71969;SDS011;59838;52.152;5.436;2024-02-15T09:45:13;2.88;;;0.88;;
71969;SDS011;59838;52.152;5.436;2024-02-15T09:47:42;5.32;;;0.98;;
71969;SDS011;59838;52.152;5.436;2024-02-15T09:50:09;2.28;;;0.80;;
71969;SDS011;59838;52.152;5.436;2024-02-15T09:52:40;5.32;;;1.17;;
71969;SDS011;59838;52.152;5.436;2024-02-15T09:55:09;6.15;;;1.20;;
71969;SDS011;59838;52.152;5.436;2024-02-15T09:57:43;3.28;;;0.90;;
71969;SDS011;59838;52.152;5.436;2024-02-15T10:00:13;2.08;;;0.80;;
71969;SDS011;59838;52.152;5.436;2024-02-15T10:02:41;2.88;;;0.95;;
71969;SDS011;59838;52.152;5.436;2024-02-15T10:05:11;6.65;;;0.98;;
71969;SDS011;59838;52.152;5.436;2024-02-15T10:07:41;4.35;;;1.10;;
71969;SDS011;59838;52.152;5.436;2024-02-15T10:12:52;4.13;;;1.17;;
71969;SDS011;59838;52.152;5.436;2024-02-15T10:18:09;6.80;;;1.60;;
71969;SDS011;59838;52.152;5.436;2024-02-15T10:20:38;4.70;;;1.23;;
71969;SDS011;59838;52.152;5.436;2024-02-15T10:25:36;8.60;;;1.70;;
71969;SDS011;59838;52.152;5.436;2024-02-15T10:28:06;5.40;;;1.83;;
71969;SDS011;59838;52.152;5.436;2024-02-15T10:30:42;3.25;;;1.30;;
71969;SDS011;59838;52.152;5.436;2024-02-15T10:33:10;2.95;;;0.85;;
71969;SDS011;59838;52.152;5.436;2024-02-15T10:35:44;2.70;;;1.02;;
71969;SDS011;59838;52.152;5.436;2024-02-15T10:38:11;4.07;;;1.45;;
71969;SDS011;59838;52.152;5.436;2024-02-15T10:40:42;7.40;;;1.90;;
71969;SDS011;59838;52.152;5.436;2024-02-15T10:43:09;5.45;;;1.17;;
71969;SDS011;59838;52.152;5.436;2024-02-15T10:45:39;4.28;;;1.40;;
71969;SDS011;59838;52.152;5.436;2024-02-15T10:48:07;6.32;;;1.40;;
71969;SDS011;59838;52.152;5.436;2024-02-15T10:50:35;7.25;;;1.67;;
71969;SDS011;59838;52.152;5.436;2024-02-15T10:53:06;5.20;;;1.30;;
71969;SDS011;59838;52.152;5.436;2024-02-15T10:55:54;2.92;;;0.90;;
71969;SDS011;59838;52.152;5.436;2024-02-15T10:58:26;4.50;;;1.37;;
71969;SDS011;59838;52.152;5.436;2024-02-15T11:00:59;7.75;;;1.67;;
71969;SDS011;59838;52.152;5.436;2024-02-15T11:03:29;6.60;;;1.70;;
71969;SDS011;59838;52.152;5.436;2024-02-15T11:06:02;5.50;;;1.67;;
71969;SDS011;59838;52.152;5.436;2024-02-15T11:08:33;4.07;;;1.48;;
71969;SDS011;59838;52.152;5.436;2024-02-15T11:11:01;2.75;;;1.63;;
71969;SDS011;59838;52.152;5.436;2024-02-15T11:13:31;10.52;;;1.38;;
71969;SDS011;59838;52.152;5.436;2024-02-15T11:15:58;5.63;;;1.88;;
71969;SDS011;59838;52.152;5.436;2024-02-15T11:21:12;5.25;;;2.00;;
71969;SDS011;59838;52.152;5.436;2024-02-15T11:23:40;5.05;;;1.65;;
71969;SDS011;59838;52.152;5.436;2024-02-15T11:26:43;6.18;;;1.88;;
71969;SDS011;59838;52.152;5.436;2024-02-15T11:29:09;4.32;;;1.95;;
71969;SDS011;59838;52.152;5.436;2024-02-15T11:31:54;6.00;;;2.35;;
71969;SDS011;59838;52.152;5.436;2024-02-15T11:34:41;5.60;;;2.45;;
71969;SDS011;59838;52.152;5.436;2024-02-15T11:37:09;5.78;;;2.00;;
71969;SDS011;59838;52.152;5.436;2024-02-15T11:39:39;4.82;;;1.83;;
71969;SDS011;59838;52.152;5.436;2024-02-15T11:42:29;5.10;;;2.60;;
71969;SDS011;59838;52.152;5.436;2024-02-15T11:45:05;7.80;;;2.53;;
71969;SDS011;59838;52.152;5.436;2024-02-15T11:47:39;6.38;;;2.42;;
71969;SDS011;59838;52.152;5.436;2024-02-15T11:50:09;15.48;;;2.60;;
71969;SDS011;59838;52.152;5.436;2024-02-15T11:52:41;5.18;;;3.13;;
71969;SDS011;59838;52.152;5.436;2024-02-15T11:55:08;4.60;;;2.67;;
71969;SDS011;59838;52.152;5.436;2024-02-15T11:57:40;4.90;;;2.72;;
71969;SDS011;59838;52.152;5.436;2024-02-15T12:00:21;6.10;;;3.10;;
71969;SDS011;59838;52.152;5.436;2024-02-15T12:03:06;5.28;;;2.75;;
71969;SDS011;59838;52.152;5.436;2024-02-15T12:05:51;7.10;;;2.70;;
71969;SDS011;59838;52.152;5.436;2024-02-15T12:08:37;6.13;;;2.63;;
71969;SDS011;59838;52.152;5.436;2024-02-15T12:11:22;7.22;;;2.90;;
71969;SDS011;59838;52.152;5.436;2024-02-15T12:14:11;6.40;;;2.60;;
71969;SDS011;59838;52.152;5.436;2024-02-15T12:19:47;9.23;;;2.83;;
71969;SDS011;59838;52.152;5.436;2024-02-15T12:22:19;7.32;;;2.55;;
71969;SDS011;59838;52.152;5.436;2024-02-15T12:24:54;6.55;;;2.40;;
71969;SDS011;59838;52.152;5.436;2024-02-15T12:27:24;5.78;;;2.25;;
71969;SDS011;59838;52.152;5.436;2024-02-15T12:29:55;5.50;;;2.17;;
71969;SDS011;59838;52.152;5.436;2024-02-15T12:32:25;5.22;;;2.60;;
71969;SDS011;59838;52.152;5.436;2024-02-15T12:34:53;5.43;;;2.60;;
71969;SDS011;59838;52.152;5.436;2024-02-15T12:37:36;5.63;;;2.65;;
71969;SDS011;59838;52.152;5.436;2024-02-15T12:40:18;4.93;;;1.92;;
71969;SDS011;59838;52.152;5.436;2024-02-15T12:42:46;5.03;;;2.08;;
71969;SDS011;59838;52.152;5.436;2024-02-15T12:45:17;3.92;;;2.35;;
71969;SDS011;59838;52.152;5.436;2024-02-15T12:50:14;5.70;;;2.10;;
71969;SDS011;59838;52.152;5.436;2024-02-15T12:52:41;4.88;;;2.20;;
71969;SDS011;59838;52.152;5.436;2024-02-15T12:55:10;4.70;;;2.33;;
71969;SDS011;59838;52.152;5.436;2024-02-15T12:57:38;3.75;;;1.90;;
71969;SDS011;59838;52.152;5.436;2024-02-15T13:00:11;4.35;;;1.90;;
71969;SDS011;59838;52.152;5.436;2024-02-15T13:02:40;5.20;;;2.08;;
71969;SDS011;59838;52.152;5.436;2024-02-15T13:05:07;3.05;;;1.88;;
71969;SDS011;59838;52.152;5.436;2024-02-15T13:07:37;2.72;;;1.38;;
71969;SDS011;59838;52.152;5.436;2024-02-15T13:10:04;8.23;;;1.70;;
71969;SDS011;59838;52.152;5.436;2024-02-15T13:12:37;6.38;;;1.80;;
71969;SDS011;59838;52.152;5.436;2024-02-15T13:15:04;3.70;;;1.30;;
71969;SDS011;59838;52.152;5.436;2024-02-15T13:17:38;6.82;;;1.40;;
71969;SDS011;59838;52.152;5.436;2024-02-15T13:20:05;4.13;;;1.30;;
71969;SDS011;59838;52.152;5.436;2024-02-15T13:22:37;3.78;;;1.27;;
71969;SDS011;59838;52.152;5.436;2024-02-15T13:25:08;6.35;;;1.60;;
71969;SDS011;59838;52.152;5.436;2024-02-15T13:27:36;3.00;;;1.10;;
71969;SDS011;59838;52.152;5.436;2024-02-15T13:30:06;4.05;;;1.35;;
71969;SDS011;59838;52.152;5.436;2024-02-15T13:32:38;3.47;;;1.25;;
71969;SDS011;59838;52.152;5.436;2024-02-15T13:35:08;5.28;;;1.30;;
71969;SDS011;59838;52.152;5.436;2024-02-15T13:37:42;3.25;;;1.13;;
71969;SDS011;59838;52.152;5.436;2024-02-15T13:40:15;7.03;;;1.30;;
71969;SDS011;59838;52.152;5.436;2024-02-15T13:42:42;3.03;;;1.65;;
71969;SDS011;59838;52.152;5.436;2024-02-15T13:45:20;3.17;;;0.80;;
71969;SDS011;59838;52.152;5.436;2024-02-15T13:47:49;4.38;;;1.13;;
71969;SDS011;59838;52.152;5.436;2024-02-15T13:50:23;6.72;;;1.35;;
71969;SDS011;59838;52.152;5.436;2024-02-15T13:52:50;3.28;;;0.77;;
71969;SDS011;59838;52.152;5.436;2024-02-15T13:55:17;2.92;;;1.17;;
71969;SDS011;59838;52.152;5.436;2024-02-15T13:57:45;2.60;;;1.35;;
71969;SDS011;59838;52.152;5.436;2024-02-15T14:00:15;1.95;;;1.08;;
71969;SDS011;59838;52.152;5.436;2024-02-15T14:02:52;5.05;;;1.08;;
71969;SDS011;59838;52.152;5.436;2024-02-15T14:05:21;4.07;;;0.98;;
71969;SDS011;59838;52.152;5.436;2024-02-15T14:07:55;4.22;;;0.90;;
71969;SDS011;59838;52.152;5.436;2024-02-15T14:10:24;2.92;;;1.10;;
71969;SDS011;59838;52.152;5.436;2024-02-15T14:12:53;4.80;;;0.85;;
71969;SDS011;59838;52.152;5.436;2024-02-15T14:15:28;5.30;;;1.20;;
71969;SDS011;59838;52.152;5.436;2024-02-15T14:17:56;7.13;;;1.45;;
71969;SDS011;59838;52.152;5.436;2024-02-15T14:20:23;2.25;;;1.30;;
71969;SDS011;59838;52.152;5.436;2024-02-15T14:22:50;3.72;;;1.10;;
71969;SDS011;59838;52.152;5.436;2024-02-15T14:25:24;3.42;;;1.42;;
71969;SDS011;59838;52.152;5.436;2024-02-15T14:27:58;4.32;;;1.13;;
71969;SDS011;59838;52.152;5.436;2024-02-15T14:30:26;2.45;;;1.35;;
71969;SDS011;59838;52.152;5.436;2024-02-15T14:33:12;3.45;;;0.95;;
71969;SDS011;59838;52.152;5.436;2024-02-15T14:35:48;7.35;;;1.40;;
71969;SDS011;59838;52.152;5.436;2024-02-15T14:38:15;2.85;;;0.73;;
71969;SDS011;59838;52.152;5.436;2024-02-15T14:40:46;3.85;;;1.02;;
71969;SDS011;59838;52.152;5.436;2024-02-15T14:43:24;5.13;;;1.80;;
71969;SDS011;59838;52.152;5.436;2024-02-15T14:45:54;2.55;;;1.02;;
71969;SDS011;59838;52.152;5.436;2024-02-15T14:48:22;4.03;;;1.27;;
71969;SDS011;59838;52.152;5.436;2024-02-15T14:50:50;6.35;;;1.23;;
71969;SDS011;59838;52.152;5.436;2024-02-15T14:53:18;4.03;;;1.10;;
71969;SDS011;59838;52.152;5.436;2024-02-15T14:55:45;4.05;;;0.90;;
71969;SDS011;59838;52.152;5.436;2024-02-15T14:58:15;4.43;;;1.35;;
71969;SDS011;59838;52.152;5.436;2024-02-15T15:00:45;4.20;;;1.27;;
71969;SDS011;59838;52.152;5.436;2024-02-15T15:03:14;4.18;;;0.98;;
71969;SDS011;59838;52.152;5.436;2024-02-15T15:05:41;2.25;;;1.30;;
71969;SDS011;59838;52.152;5.436;2024-02-15T15:08:27;4.22;;;1.45;;
71969;SDS011;59838;52.152;5.436;2024-02-15T15:11:13;3.13;;;1.00;;
71969;SDS011;59838;52.152;5.436;2024-02-15T15:13:59;3.50;;;0.93;;
71969;SDS011;59838;52.152;5.436;2024-02-15T15:16:25;2.90;;;1.13;;
71969;SDS011;59838;52.152;5.436;2024-02-15T15:18:54;3.15;;;1.15;;
71969;SDS011;59838;52.152;5.436;2024-02-15T15:21:21;6.40;;;1.90;;